地図

経路データ

SID SEASON NUMBER BASIN SUBBASIN NAME ISO_TIME NATURE LAT LON WMO_WIND WMO_PRES WMO_AGENCY TRACK_TYPE DIST2LAND LANDFALL IFLAG USA_AGENCY USA_ATCF_ID USA_LAT USA_LON USA_RECORD USA_STATUS USA_WIND USA_PRES USA_SSHS USA_R34_NE USA_R34_SE USA_R34_SW USA_R34_NW USA_R50_NE USA_R50_SE USA_R50_SW USA_R50_NW USA_R64_NE USA_R64_SE USA_R64_SW USA_R64_NW USA_POCI USA_ROCI USA_RMW USA_EYE TOKYO_LAT TOKYO_LON TOKYO_GRADE TOKYO_WIND TOKYO_PRES TOKYO_R50_DIR TOKYO_R50_LONG TOKYO_R50_SHORT TOKYO_R30_DIR TOKYO_R30_LONG TOKYO_R30_SHORT TOKYO_LAND CMA_LAT CMA_LON CMA_CAT CMA_WIND CMA_PRES HKO_LAT HKO_LON HKO_CAT HKO_WIND HKO_PRES NEWDELHI_LAT NEWDELHI_LON NEWDELHI_GRADE NEWDELHI_WIND NEWDELHI_PRES NEWDELHI_CI NEWDELHI_DP NEWDELHI_POCI REUNION_LAT REUNION_LON REUNION_TYPE REUNION_WIND REUNION_PRES REUNION_TNUM REUNION_CI REUNION_RMW REUNION_R34_NE REUNION_R34_SE REUNION_R34_SW REUNION_R34_NW REUNION_R50_NE REUNION_R50_SE REUNION_R50_SW REUNION_R50_NW REUNION_R64_NE REUNION_R64_SE REUNION_R64_SW REUNION_R64_NW BOM_LAT BOM_LON BOM_TYPE BOM_WIND BOM_PRES BOM_TNUM BOM_CI BOM_RMW BOM_R34_NE BOM_R34_SE BOM_R34_SW BOM_R34_NW BOM_R50_NE BOM_R50_SE BOM_R50_SW BOM_R50_NW BOM_R64_NE BOM_R64_SE BOM_R64_SW BOM_R64_NW BOM_ROCI BOM_POCI BOM_EYE BOM_POS_METHOD BOM_PRES_METHOD NADI_LAT NADI_LON NADI_CAT NADI_WIND NADI_PRES WELLINGTON_LAT WELLINGTON_LON WELLINGTON_WIND WELLINGTON_PRES DS824_LAT DS824_LON DS824_STAGE DS824_WIND DS824_PRES TD9636_LAT TD9636_LON TD9636_STAGE TD9636_WIND TD9636_PRES TD9635_LAT TD9635_LON TD9635_WIND TD9635_PRES TD9635_ROCI NEUMANN_LAT NEUMANN_LON NEUMANN_CLASS NEUMANN_WIND NEUMANN_PRES MLC_LAT MLC_LON MLC_CLASS MLC_WIND MLC_PRES USA_GUST BOM_GUST BOM_GUST_PER REUNION_GUST REUNION_GUST_PER USA_SEAHGT USA_SEARAD_NE USA_SEARAD_SE USA_SEARAD_SW USA_SEARAD_NW STORM_SPEED STORM_DIR
1961183N22070 1961 55 NI AS NOT_NAMED 1961-07-01 18:00:00 TS 21.5000 70.2000 main 0 0 O________O____ jtwc_io IO101961 21.5000 70.2000 -1 21.5000 70.2000 TC 1 0
1961183N22070 1961 55 NI AS NOT_NAMED 1961-07-01 21:00:00 TS 21.4575 70.2275 main 0 0 P________P____ IO101961 21.4575 70.2275 -1 21.4575 70.2275 TC 1 137
1961183N22070 1961 55 NI AS NOT_NAMED 1961-07-02 00:00:00 TS 21.4000 70.3000 main 0 0 O________O____ jtwc_io IO101961 21.4000 70.3000 -1 21.4000 70.3000 TC 25 3 124
1961183N22070 1961 55 NI AS NOT_NAMED 1961-07-02 03:00:00 TS 21.3133 70.4599 main 0 0 P________PO___ IO101961 21.3149 70.4549 -1 21.3149 70.4549 TC 25 21.3000 70.5000 1 4 119
1961183N22070 1961 55 NI AS NOT_NAMED 1961-07-02 06:00:00 TS 21.1854 70.7195 main 0 0 O________OP___ jtwc_io IO101961 21.2000 70.7000 -1 21.2000 70.7000 TC 25 21.1270 70.7977 1 6 117
1961183N22070 1961 55 NI AS NOT_NAMED 1961-07-02 09:00:00 TS 21.0237 71.0599 main 0 0 P________PP___ IO101961 21.0427 71.0502 -1 21.0427 71.0502 TC 25 20.9730 71.0860 1 7 116
1961183N22070 1961 55 NI AS NOT_NAMED 1961-07-02 12:00:00 TS 20.8858 71.3854 main 0 0 O________OP___ jtwc_io IO101961 20.9000 71.4000 -1 20.9000 71.4000 TC 25 20.8575 71.3562 1 6 112
1961183N22070 1961 55 NI AS NOT_NAMED 1961-07-02 15:00:00 TS 20.8083 71.6200 main 23 23 P________PO___ IO101961 20.8124 71.6300 -1 20.8124 71.6300 TC 25 20.8000 71.6000 1 4 102
1961183N22070 1961 55 NI AS NOT_NAMED 1961-07-02 18:00:00 TS 20.8044 71.8033 main 33 24 O________OP___ jtwc_io IO101961 20.8000 71.8000 -1 20.8000 71.8000 TC 25 20.8133 71.8099 1 3 78
1961183N22070 1961 55 NI AS NOT_NAMED 1961-07-02 21:00:00 TS 20.8791 71.9756 main 30 22 P________PP___ IO101961 20.8775 71.9724 -1 20.8775 71.9724 TC 25 20.8823 71.9819 1 3 56
1961183N22070 1961 55 NI AS NOT_NAMED 1961-07-03 00:00:00 TS 20.9951 72.1044 main 22 15 O________OP___ jtwc_io IO101961 21.0000 72.1000 -1 21.0000 72.1000 TC 25 20.9852 72.1131 1 3 41
1961183N22070 1961 55 NI AS NOT_NAMED 1961-07-03 03:00:00 TS 21.1000 72.1817 main 15 10 P________PO___ IO101961 21.1000 72.1725 -1 21.1000 72.1725 TC 25 21.1000 72.2000 1 2 27
1961183N22070 1961 55 NI AS NOT_NAMED 1961-07-03 06:00:00 TS 21.1976 72.2185 main 10 10 O________OP___ jtwc_io IO101961 21.2000 72.2000 -1 21.2000 72.2000 TC 25 21.1927 72.2554 1 2 12
1961183N22070 1961 55 NI AS NOT_NAMED 1961-07-03 09:00:00 TS 21.2975 72.2275 main 10 10 P________PP___ IO101961 21.3000 72.2075 -1 21.3000 72.2075 TC 25 21.2924 72.2675 1 2 355
1961183N22070 1961 55 NI AS NOT_NAMED 1961-07-03 12:00:00 TS 21.3986 72.2153 main 10 0 O________OP___ jtwc_io IO101961 21.4000 72.2000 -1 21.4000 72.2000 TC 25 21.3959 72.2460 1 2 0
1961183N22070 1961 55 NI AS NOT_NAMED 1961-07-03 15:00:00 TS 21.5000 72.2100 main 0 0 P________PO___ IO101961 21.5000 72.2150 -1 21.5000 72.2150 TC 25 21.5000 72.2000 1 2 356
1961183N22070 1961 55 NI AS NOT_NAMED 1961-07-03 18:00:00 TS 21.5918 72.1889 main 0 0 O________OP___ jtwc_io IO101961 21.6000 72.2000 -1 21.6000 72.2000 TC 25 21.5755 72.1666 1 2 333
1961183N22070 1961 55 NI AS NOT_NAMED 1961-07-03 21:00:00 TS 21.6800 72.1182 main 0 0 P________PP___ IO101961 21.6925 72.1225 -1 21.6925 72.1225 TC 25 21.6549 72.1096 1 3 319
1961183N22070 1961 55 NI AS NOT_NAMED 1961-07-04 00:00:00 TS 21.7856 72.0076 main 0 0 O________OP___ jtwc_io IO101961 21.8000 72.0000 -1 21.8000 72.0000 TC 25 21.7568 72.0227 1 3 316
1961183N22070 1961 55 NI AS NOT_NAMED 1961-07-04 03:00:00 TS 21.9133 71.8766 main 0 0 P________PO___ IO101961 21.9200 71.8649 -1 21.9200 71.8649 TC 25 21.9000 71.9000 1 4 320
1961183N22070 1961 55 NI AS NOT_NAMED 1961-07-04 06:00:00 TS 22.1091 71.7108 main 0 0 O________OP___ jtwc_io IO101961 22.1000 71.7000 -1 22.1000 71.7000 TC 25 22.1273 71.7324 1 6 325
1961183N22070 1961 55 NI AS NOT_NAMED 1961-07-04 09:00:00 TS 22.3976 71.5153 main 0 0 P________PP___ IO101961 22.4000 71.5076 -1 22.4000 71.5076 TC 25 22.3927 71.5307 1 7 327
1961183N22070 1961 55 NI AS NOT_NAMED 1961-07-04 12:00:00 TS 22.6872 71.3045 main 0 0 O________OP___ jtwc_io IO101961 22.7000 71.3000 -1 22.7000 71.3000 TC 25 22.6617 71.3136 1 6 321
1961183N22070 1961 55 NI AS NOT_NAMED 1961-07-04 15:00:00 TS 22.8817 71.0949 main 0 0 P________PO___ IO101961 22.8725 71.0924 -1 22.8725 71.0924 TC 25 22.9000 71.1000 1 5 312
1961183N22070 1961 55 NI AS NOT_NAMED 1961-07-04 18:00:00 TS 23.0203 70.9045 main 0 0 O________OP___ jtwc_io IO101961 23.0000 70.9000 -1 23.0000 70.9000 TC 25 23.0609 70.9134 1 4 312
1961183N22070 1961 55 NI AS NOT_NAMED 1961-07-04 21:00:00 TS 23.1674 70.7448 main 0 0 P________PP___ IO101961 23.1574 70.7499 -1 23.1574 70.7499 TC 25 23.1874 70.7346 1 4 314
1961183N22070 1961 55 NI AS NOT_NAMED 1961-07-05 00:00:00 TS 23.2984 70.5878 main 0 0 O________OP___ jtwc_io IO101961 23.3000 70.6000 -1 23.3000 70.6000 TC 25 23.2952 70.5635 1 4 306
1961183N22070 1961 55 NI AS NOT_NAMED 1961-07-05 03:00:00 TS 23.4000 70.4000 main 0 0 P________PO___ IO101961 23.4000 70.3999 -1 23.4000 70.3999 TC 25 23.4000 70.4000 1 4 301
1961183N22070 1961 55 NI AS NOT_NAMED 1961-07-05 06:00:00 TS 23.5057 70.2175 main 0 0 O________OP___ jtwc_io IO101961 23.5000 70.2000 -1 23.5000 70.2000 TC 25 23.5141 70.2437 1 4 307
1961183N22070 1961 55 NI AS NOT_NAMED 1961-07-05 09:00:00 TS 23.6375 70.0613 main 0 0 P________PP___ IO101961 23.6375 70.0376 -1 23.6375 70.0376 TC 25 23.6376 70.0929 1 4 316
1961183N22070 1961 55 NI AS NOT_NAMED 1961-07-05 12:00:00 TS 23.7836 69.9228 main 0 0 O________OP___ jtwc_io IO101961 23.8000 69.9000 -1 23.8000 69.9000 TC 25 23.7673 69.9456 1 4 317
1961183N22070 1961 55 NI AS NOT_NAMED 1961-07-05 15:00:00 NR 23.9000 69.8000 main 0 __________O___ IO101961 -1 TC 23.9000 69.8000 1 3 316

IBTrACS Databaseについて

本データベースは、米国NOAAが公開する1842年以降の世界の熱帯低気圧のベストトラックデータアーカイブInternational Best Track Archive for Climate Stewardship (IBTrACS)を、ウェブで閲覧しやすい形式に変換したものです。

最終更新日:2021-12-03